Time;durP1;ratioP1;P1;durP2;ratioP2;P2;SDS_P1;SDS_P2;PMS_P1;PMS_P2;Temp;Humidity;BMP_temperature;BMP_pressure;BME280_temperature;BME280_humidity;BME280_pressure;Samples;Min_cycle;Max_cycle;Signal;HPM_P1;HPM_P2
2023/08/22 00:01:27;;;;;;;8.30;6.70;;;17.60;99.90;;;;;;5038717;28;20059;-57
2023/08/22 00:03:56;;;;;;;7.60;5.95;;;17.60;99.90;;;;;;5055255;28;20802;-55
2023/08/22 00:06:23;;;;;;;8.38;6.10;;;17.60;99.90;;;;;;5038721;28;20036;-55
2023/08/22 00:08:49;;;;;;;9.23;5.38;;;17.70;99.90;;;;;;5039752;28;20044;-57
2023/08/22 00:11:15;;;;;;;8.63;7.30;;;17.70;99.90;;;;;;5044895;28;20046;-57
2023/08/22 00:13:40;;;;;;;10.95;6.18;;;17.70;99.90;;;;;;5041019;28;20044;-57
2023/08/22 00:16:06;;;;;;;10.02;6.70;;;17.70;99.90;;;;;;5023584;28;20614;-56
2023/08/22 00:18:32;;;;;;;12.50;7.35;;;17.70;99.90;;;;;;5041689;28;20652;-57
2023/08/22 00:20:58;;;;;;;8.60;5.78;;;17.70;99.90;;;;;;5028625;28;20182;-58
2023/08/22 00:23:23;;;;;;;10.15;5.05;;;17.70;99.90;;;;;;5042872;28;20126;-57
2023/08/22 00:25:49;;;;;;;12.32;7.38;;;17.70;99.90;;;;;;5039448;28;20677;-57
2023/08/22 00:28:15;;;;;;;10.25;5.50;;;17.70;99.90;;;;;;5044615;28;20039;-58
2023/08/22 00:30:41;;;;;;;8.35;4.90;;;17.70;99.90;;;;;;5027373;28;20075;-57
2023/08/22 00:33:06;;;;;;;9.15;5.93;;;17.70;99.90;;;;;;5035612;28;20036;-58
2023/08/22 00:35:32;;;;;;;9.95;6.07;;;17.70;99.90;;;;;;5060329;28;20044;-58
2023/08/22 00:37:58;;;;;;;10.27;5.65;;;17.60;99.90;;;;;;5007490;28;20137;-58
2023/08/22 00:40:23;;;;;;;7.53;5.22;;;17.60;99.90;;;;;;5023423;28;20142;-58
2023/08/22 00:42:50;;;;;;;8.13;5.53;;;17.60;99.90;;;;;;5041298;28;20487;-56
2023/08/22 00:45:16;;;;;;;9.65;5.60;;;17.60;99.90;;;;;;5060302;28;20555;-57
2023/08/22 00:47:41;;;;;;;7.10;5.20;;;17.60;99.90;;;;;;5040271;28;20139;-56
2023/08/22 00:50:08;;;;;;;9.75;5.10;;;17.60;99.90;;;;;;5039702;28;20128;-56
2023/08/22 00:52:34;;;;;;;8.23;5.57;;;17.60;99.90;;;;;;5037806;28;20442;-58
2023/08/22 00:55:00;;;;;;;8.30;4.53;;;17.60;99.90;;;;;;5024226;28;20086;-56
2023/08/22 00:57:26;;;;;;;8.02;5.38;;;17.60;99.90;;;;;;5038885;28;20344;-57
2023/08/22 00:59:53;;;;;;;9.52;4.90;;;17.50;99.90;;;;;;5042035;28;20040;-57
2023/08/22 01:02:19;;;;;;;7.82;5.75;;;17.50;99.90;;;;;;5039904;28;20544;-56
2023/08/22 01:04:44;;;;;;;9.43;5.63;;;17.50;99.90;;;;;;5022172;28;20052;-57
2023/08/22 01:07:30;;;;;;;8.68;5.97;;;17.50;99.90;;;;;;5038575;28;20111;-57
2023/08/22 01:10:02;;;;;;;9.18;7.03;;;17.50;99.90;;;;;;5035589;28;20054;-58
2023/08/22 01:12:52;;;;;;;8.88;5.57;;;17.50;99.90;;;;;;5032893;28;20628;-57
2023/08/22 01:15:25;;;;;;;8.10;5.90;;;17.40;99.90;;;;;;5057639;28;20454;-57
2023/08/22 01:17:56;;;;;;;9.45;6.68;;;17.40;99.90;;;;;;5039482;28;20063;-57
2023/08/22 01:20:24;;;;;;;11.02;5.18;;;17.40;99.90;;;;;;5042386;28;20393;-57
2023/08/22 01:22:51;;;;;;;9.68;5.97;;;17.40;99.90;;;;;;5055197;28;20048;-57
2023/08/22 01:25:17;;;;;;;9.35;6.57;;;17.40;99.90;;;;;;5039400;28;20048;-57
2023/08/22 01:27:54;;;;;;;10.02;6.03;;;17.40;99.90;;;;;;5044545;28;20340;-57
2023/08/22 01:30:29;;;;;;;9.23;6.25;;;17.40;99.90;;;;;;5038057;28;20094;-57
2023/08/22 01:33:00;;;;;;;7.93;5.82;;;17.40;99.90;;;;;;5037738;28;20040;-58
2023/08/22 01:35:27;;;;;;;7.82;5.75;;;17.40;99.90;;;;;;5040558;28;20055;-57
2023/08/22 01:37:54;;;;;;;8.43;5.60;;;17.40;99.90;;;;;;5043058;28;20123;-58
2023/08/22 01:40:22;;;;;;;8.95;5.65;;;17.40;99.90;;;;;;5027426;28;20036;-56
2023/08/22 01:42:48;;;;;;;10.80;5.63;;;17.40;99.90;;;;;;5025373;28;20475;-57
2023/08/22 01:45:13;;;;;;;11.13;6.43;;;17.40;99.90;;;;;;5040098;28;20056;-56
2023/08/22 01:47:39;;;;;;;8.07;5.13;;;17.40;99.90;;;;;;5023432;28;20403;-56
2023/08/22 01:50:05;;;;;;;7.38;4.97;;;17.40;99.90;;;;;;5045498;28;20413;-57
2023/08/22 01:52:31;;;;;;;10.43;6.20;;;17.40;99.90;;;;;;5039331;28;20032;-58
2023/08/22 01:54:58;;;;;;;12.10;6.25;;;17.30;99.90;;;;;;5060419;28;20098;-57
2023/08/22 01:57:23;;;;;;;8.05;5.38;;;17.30;99.90;;;;;;5011558;28;20459;-57
2023/08/22 01:59:49;;;;;;;8.82;5.45;;;17.30;99.90;;;;;;5040353;28;20040;-57
2023/08/22 02:02:15;;;;;;;9.80;5.95;;;17.30;99.90;;;;;;5021537;28;20084;-57
2023/08/22 02:04:40;;;;;;;9.63;6.10;;;17.30;99.90;;;;;;5060795;28;20868;-58
2023/08/22 02:07:06;;;;;;;6.80;4.90;;;17.20;99.90;;;;;;5041378;28;20198;-57
2023/08/22 02:09:32;;;;;;;11.90;5.65;;;17.20;99.90;;;;;;5043431;28;20128;-57
2023/08/22 02:11:57;;;;;;;10.40;6.15;;;17.20;99.90;;;;;;5044940;28;20036;-57
2023/08/22 02:14:23;;;;;;;13.20;7.22;;;17.10;99.90;;;;;;5031234;28;20120;-58
2023/08/22 02:16:49;;;;;;;11.18;6.55;;;17.10;99.90;;;;;;5040096;28;20131;-57
2023/08/22 02:19:16;;;;;;;10.18;6.45;;;17.10;99.90;;;;;;5041051;28;20040;-58
2023/08/22 02:21:42;;;;;;;7.22;6.25;;;17.00;99.90;;;;;;5024964;28;20037;-57
2023/08/22 02:24:08;;;;;;;8.63;4.78;;;17.00;99.90;;;;;;5043925;28;20055;-57
2023/08/22 02:26:33;;;;;;;9.50;6.03;;;16.90;99.90;;;;;;5055556;28;20049;-57
2023/08/22 02:29:00;;;;;;;9.40;5.68;;;16.90;99.90;;;;;;5057027;28;20036;-57
2023/08/22 02:31:25;;;;;;;8.88;5.13;;;16.80;99.90;;;;;;5056917;28;20836;-56
2023/08/22 02:33:51;;;;;;;6.63;5.00;;;16.80;99.90;;;;;;5041477;28;20160;-54
2023/08/22 02:36:17;;;;;;;8.15;5.20;;;16.80;99.90;;;;;;5041137;28;20056;-56
2023/08/22 02:38:42;;;;;;;8.88;5.90;;;16.80;99.90;;;;;;5041425;28;20040;-54
2023/08/22 02:41:08;;;;;;;8.13;5.07;;;16.70;99.90;;;;;;5037938;28;20049;-57
2023/08/22 02:43:34;;;;;;;9.38;6.38;;;16.70;99.90;;;;;;5038282;28;20047;-56
2023/08/22 02:45:59;;;;;;;8.20;5.95;;;16.70;99.90;;;;;;5040457;28;20044;-54
2023/08/22 02:48:25;;;;;;;6.88;5.55;;;16.70;99.90;;;;;;5036237;28;20106;-57
2023/08/22 02:50:51;;;;;;;8.05;5.65;;;16.70;99.90;;;;;;5038282;28;20051;-56
2023/08/22 02:53:16;;;;;;;9.10;5.60;;;16.60;99.90;;;;;;5023054;28;20043;-57
2023/08/22 02:55:47;;;;;;;10.27;6.57;;;16.60;99.90;;;;;;5041952;28;20036;-56
2023/08/22 02:58:12;;;;;;;8.50;5.82;;;16.60;99.90;;;;;;5039665;28;20048;-56
2023/08/22 03:00:38;;;;;;;8.60;5.95;;;16.60;99.90;;;;;;5038239;28;20066;-56
2023/08/22 03:03:04;;;;;;;13.45;6.28;;;16.60;99.90;;;;;;5041435;28;20312;-56
2023/08/22 03:05:30;;;;;;;10.52;5.97;;;16.60;99.90;;;;;;5041684;28;20111;-55
2023/08/22 03:07:56;;;;;;;15.27;6.57;;;16.60;99.90;;;;;;5038634;28;20079;-57
2023/08/22 03:10:21;;;;;;;11.52;6.00;;;16.60;99.90;;;;;;5039426;28;20059;-57
2023/08/22 03:12:49;;;;;;;9.68;6.35;;;16.60;99.90;;;;;;5056197;28;20102;-55
2023/08/22 03:15:14;;;;;;;12.05;6.10;;;16.60;99.90;;;;;;5025321;28;20379;-55
2023/08/22 03:17:40;;;;;;;9.98;6.03;;;16.60;99.90;;;;;;5020074;28;20056;-55
2023/08/22 03:20:07;;;;;;;9.65;6.45;;;16.60;99.90;;;;;;5021477;28;20076;-57
2023/08/22 03:22:33;;;;;;;9.68;5.90;;;16.60;99.90;;;;;;5037225;28;20045;-55
2023/08/22 03:24:58;;;;;;;8.90;6.57;;;16.60;99.90;;;;;;5039021;28;20100;-57
2023/08/22 03:27:24;;;;;;;9.52;6.53;;;16.50;99.90;;;;;;5039394;28;20046;-57
2023/08/22 03:29:50;;;;;;;10.45;5.78;;;16.50;99.90;;;;;;5039935;28;20063;-56
2023/08/22 03:32:15;;;;;;;7.30;4.68;;;16.40;99.90;;;;;;5018666;28;20048;-57
2023/08/22 03:34:41;;;;;;;9.52;6.22;;;16.40;99.90;;;;;;5037618;28;21707;-57
2023/08/22 03:37:07;;;;;;;8.70;5.85;;;16.40;99.90;;;;;;5033567;28;20058;-56
2023/08/22 03:39:33;;;;;;;8.85;6.05;;;16.40;99.90;;;;;;5037806;28;20426;-56
2023/08/22 03:41:58;;;;;;;8.95;6.97;;;16.30;99.90;;;;;;5038442;28;20036;-56
2023/08/22 03:44:24;;;;;;;9.02;6.00;;;16.30;99.90;;;;;;5037217;28;20124;-57
2023/08/22 03:47:29;;;;;;;6.05;5.18;;;16.20;99.90;;;;;;5039349;28;20037;-55
2023/08/22 03:49:54;;;;;;;6.32;4.70;;;16.20;99.90;;;;;;5033546;28;20052;-57
2023/08/22 03:52:20;;;;;;;11.90;6.50;;;16.10;99.90;;;;;;5021927;28;20047;-56
2023/08/22 03:54:46;;;;;;;8.45;5.72;;;16.10;99.90;;;;;;5038906;28;20123;-57
2023/08/22 03:57:11;;;;;;;7.70;5.38;;;16.10;99.90;;;;;;5036794;28;20048;-57
2023/08/22 03:59:37;;;;;;;11.77;6.10;;;16.00;99.90;;;;;;5053595;28;20286;-57
2023/08/22 04:02:03;;;;;;;6.35;5.40;;;16.00;99.90;;;;;;5037975;28;20052;-56
2023/08/22 04:04:29;;;;;;;9.88;5.95;;;16.00;99.90;;;;;;5027873;28;20041;-55
2023/08/22 04:06:54;;;;;;;10.32;5.75;;;16.10;99.90;;;;;;5036224;28;20054;-57
2023/08/22 04:09:20;;;;;;;10.70;6.55;;;16.00;99.90;;;;;;5034139;28;21763;-57
2023/08/22 04:11:46;;;;;;;6.95;5.75;;;16.00;99.90;;;;;;5048875;28;20063;-55
2023/08/22 04:14:11;;;;;;;10.18;6.25;;;16.00;99.90;;;;;;5018304;28;20564;-57
2023/08/22 04:16:37;;;;;;;8.88;5.72;;;15.90;99.90;;;;;;5018875;28;20040;-56
2023/08/22 04:19:03;;;;;;;7.95;5.30;;;15.90;99.90;;;;;;5037984;28;20599;-57
2023/08/22 04:21:28;;;;;;;6.18;5.18;;;15.90;99.90;;;;;;5030622;28;21153;-57
2023/08/22 04:23:55;;;;;;;9.57;5.75;;;15.80;99.90;;;;;;5033624;28;20032;-56
2023/08/22 04:26:21;;;;;;;6.05;4.53;;;15.80;99.90;;;;;;5031942;28;20033;-55
2023/08/22 04:28:47;;;;;;;6.03;4.50;;;15.80;99.90;;;;;;5036616;28;20045;-55
2023/08/22 04:31:12;;;;;;;6.63;4.90;;;15.70;99.90;;;;;;5019630;28;20043;-58
2023/08/22 04:33:38;;;;;;;5.18;3.78;;;15.70;99.90;;;;;;5051703;28;20072;-56
2023/08/22 04:36:04;;;;;;;5.50;4.68;;;15.60;99.90;;;;;;5035431;28;20048;-57
2023/08/22 04:38:30;;;;;;;6.22;4.38;;;15.60;99.90;;;;;;5036441;28;20048;-57
2023/08/22 04:40:55;;;;;;;4.35;3.35;;;15.50;99.90;;;;;;5051272;28;20097;-57
2023/08/22 04:43:21;;;;;;;4.95;4.10;;;15.50;99.90;;;;;;5033783;28;20044;-57
2023/08/22 04:45:51;;;;;;;5.05;3.55;;;15.50;99.90;;;;;;5037327;28;20309;-57
2023/08/22 04:48:17;;;;;;;5.00;3.22;;;15.50;99.90;;;;;;5020861;28;20604;-57
2023/08/22 04:50:43;;;;;;;5.22;3.97;;;15.50;99.90;;;;;;5036834;28;20046;-57
2023/08/22 04:53:09;;;;;;;6.75;5.07;;;15.50;99.90;;;;;;5059679;28;20037;-58
2023/08/22 04:55:35;;;;;;;7.55;4.78;;;15.50;99.90;;;;;;5042433;28;20129;-57
2023/08/22 04:58:00;;;;;;;6.93;4.90;;;15.50;99.90;;;;;;5010162;28;20156;-57
2023/08/22 05:00:26;;;;;;;5.95;4.00;;;15.50;99.90;;;;;;5013335;28;20123;-57
2023/08/22 05:02:52;;;;;;;6.55;3.53;;;15.50;99.90;;;;;;5016968;28;20163;-58
2023/08/22 05:05:17;;;;;;;5.00;4.18;;;15.40;99.90;;;;;;5046339;28;20044;-58
2023/08/22 05:07:43;;;;;;;4.32;3.72;;;15.50;99.90;;;;;;5042189;28;20147;-56
2023/08/22 05:10:09;;;;;;;7.15;4.82;;;15.50;99.90;;;;;;5067337;22;20040;-54
2023/08/22 05:12:34;;;;;;;4.55;3.42;;;15.50;99.90;;;;;;5073859;28;20051;-53
2023/08/22 05:15:00;;;;;;;4.03;3.20;;;15.50;99.90;;;;;;5071721;28;20067;-55
2023/08/22 05:17:26;;;;;;;4.00;3.28;;;15.50;99.90;;;;;;5073909;28;20043;-56
2023/08/22 05:19:51;;;;;;;5.25;3.80;;;15.50;99.90;;;;;;5073208;28;20059;-55
2023/08/22 05:22:17;;;;;;;5.47;4.13;;;15.50;99.90;;;;;;5076217;28;20040;-53
2023/08/22 05:24:43;;;;;;;5.00;4.45;;;15.50;99.90;;;;;;5058970;28;20548;-53
2023/08/22 05:27:08;;;;;;;8.13;6.03;;;15.60;99.90;;;;;;5040717;28;20039;-54
2023/08/22 05:29:34;;;;;;;10.55;6.55;;;15.70;99.90;;;;;;5075460;28;20449;-55
2023/08/22 05:32:00;;;;;;;9.52;7.82;;;15.70;99.90;;;;;;5055024;28;20043;-53
2023/08/22 05:34:25;;;;;;;10.00;6.45;;;15.80;99.90;;;;;;5052515;28;20043;-55
2023/08/22 05:36:51;;;;;;;10.18;8.23;;;15.90;99.90;;;;;;5071739;28;20131;-52
2023/08/22 05:39:17;;;;;;;11.23;8.18;;;16.00;99.90;;;;;;5042682;28;20047;-54
2023/08/22 05:41:42;;;;;;;11.52;7.85;;;16.10;99.90;;;;;;5053455;28;20043;-57
2023/08/22 05:44:08;;;;;;;9.38;6.07;;;16.20;99.90;;;;;;5042744;28;20039;-57
2023/08/22 05:46:34;;;;;;;8.27;7.22;;;16.30;99.90;;;;;;5059729;28;20066;-56
2023/08/22 05:48:59;;;;;;;9.85;7.88;;;16.40;99.90;;;;;;5081299;28;20422;-55
2023/08/22 05:51:25;;;;;;;11.95;7.28;;;16.40;99.90;;;;;;5079289;28;20064;-52
2023/08/22 05:53:51;;;;;;;11.38;8.27;;;16.50;99.90;;;;;;5074273;28;20499;-51
2023/08/22 05:56:17;;;;;;;9.50;8.43;;;16.50;99.90;;;;;;5061527;28;20389;-55
2023/08/22 05:58:42;;;;;;;10.80;7.97;;;16.60;99.90;;;;;;5071310;28;20501;-57
2023/08/22 06:01:09;;;;;;;10.80;8.32;;;16.70;99.90;;;;;;5062632;28;20055;-55
2023/08/22 06:03:36;;;;;;;10.20;6.88;;;16.70;99.90;;;;;;5076238;28;20606;-54
2023/08/22 06:06:02;;;;;;;11.57;8.85;;;16.80;99.90;;;;;;5073797;28;20081;-54
2023/08/22 06:08:28;;;;;;;11.90;7.65;;;16.90;99.90;;;;;;5036665;28;20122;-57
2023/08/22 06:10:54;;;;;;;11.52;8.80;;;17.00;99.90;;;;;;5072403;28;20050;-54
2023/08/22 06:13:19;;;;;;;13.60;9.23;;;17.10;99.90;;;;;;5071330;28;20036;-56
2023/08/22 06:15:45;;;;;;;10.75;8.63;;;17.10;99.90;;;;;;5038629;28;20048;-55
2023/08/22 06:18:11;;;;;;;9.35;7.65;;;17.20;99.90;;;;;;5076967;28;20521;-52
2023/08/22 06:20:40;;;;;;;14.15;9.80;;;17.20;99.90;;;;;;5060090;28;20092;-54
2023/08/22 06:23:06;;;;;;;12.90;8.55;;;17.30;99.90;;;;;;5078999;28;20035;-54
2023/08/22 06:25:34;;;;;;;11.68;8.73;;;17.40;99.90;;;;;;5047462;28;20567;-55
2023/08/22 06:28:00;;;;;;;12.80;9.15;;;17.40;99.90;;;;;;5073197;28;20048;-56
2023/08/22 06:30:27;;;;;;;13.45;9.55;;;17.50;99.90;;;;;;5053004;28;20047;-57
2023/08/22 06:32:53;;;;;;;15.55;10.32;;;17.60;99.90;;;;;;5054406;28;20051;-56
2023/08/22 06:35:18;;;;;;;14.30;10.32;;;17.70;99.90;;;;;;5052312;28;20522;-56
2023/08/22 06:37:44;;;;;;;12.60;8.95;;;17.80;99.90;;;;;;5062413;28;20051;-56
2023/08/22 06:40:11;;;;;;;14.60;9.77;;;17.90;99.90;;;;;;5074744;28;20047;-53
2023/08/22 06:42:37;;;;;;;16.80;10.35;;;18.00;99.90;;;;;;5059831;28;20478;-54
2023/08/22 06:45:03;;;;;;;15.98;9.98;;;18.10;99.90;;;;;;5064192;28;20100;-58
2023/08/22 06:47:29;;;;;;;11.15;9.05;;;18.10;99.90;;;;;;5057730;28;20614;-56
2023/08/22 06:49:54;;;;;;;18.00;10.98;;;18.20;99.90;;;;;;5068971;28;20051;-55
2023/08/22 06:52:20;;;;;;;12.98;9.73;;;18.30;99.90;;;;;;5056127;28;20089;-53
2023/08/22 06:54:46;;;;;;;12.27;8.93;;;18.40;99.90;;;;;;5043939;28;20049;-50
2023/08/22 06:57:11;;;;;;;15.63;9.75;;;18.50;99.90;;;;;;5056955;28;20136;-51
2023/08/22 06:59:37;;;;;;;12.70;10.07;;;18.60;99.90;;;;;;5055471;28;20052;-52
2023/08/22 07:02:03;;;;;;;15.15;9.13;;;18.70;99.90;;;;;;5037829;28;20071;-51
2023/08/22 07:04:32;;;;;;;12.75;9.50;;;18.70;99.90;;;;;;5053164;28;20053;-55
2023/08/22 07:06:58;;;;;;;11.68;9.20;;;18.80;99.90;;;;;;5057318;28;20063;-53
2023/08/22 07:09:25;;;;;;;14.23;10.13;;;18.80;99.90;;;;;;5059178;28;20044;-49
2023/08/22 07:11:50;;;;;;;14.45;9.80;;;18.90;99.90;;;;;;5043865;28;20052;-52
2023/08/22 07:14:16;;;;;;;13.00;8.88;;;19.00;99.90;;;;;;5043764;28;20509;-52
2023/08/22 07:16:42;;;;;;;13.25;9.32;;;19.00;99.90;;;;;;5077435;28;20040;-52
2023/08/22 07:19:07;;;;;;;12.00;9.02;;;19.10;99.90;;;;;;5062816;28;20062;-50
2023/08/22 07:21:33;;;;;;;11.50;8.68;;;19.20;99.90;;;;;;5068887;28;20032;-53
2023/08/22 07:23:59;;;;;;;12.98;9.27;;;19.10;99.90;;;;;;5058083;28;20027;-51
2023/08/22 07:26:25;;;;;;;12.55;8.25;;;19.20;99.90;;;;;;5060857;28;20036;-53
2023/08/22 07:28:51;;;;;;;12.15;8.52;;;19.20;99.90;;;;;;5044478;28;20052;-52
2023/08/22 07:31:16;;;;;;;14.88;8.35;;;19.20;99.90;;;;;;5026778;28;20040;-54
2023/08/22 07:33:42;;;;;;;11.13;8.27;;;19.40;99.90;;;;;;5075769;28;20044;-49
2023/08/22 07:36:16;;;;;;;13.10;7.85;;;19.60;99.90;;;;;;5043197;28;20042;-49
2023/08/22 07:38:42;;;;;;;11.25;8.63;;;19.70;99.90;;;;;;5064590;28;20044;-49
2023/08/22 07:41:08;;;;;;;8.80;6.82;;;19.80;99.90;;;;;;5062426;28;20039;-50
2023/08/22 07:43:34;;;;;;;9.52;7.15;;;19.90;99.90;;;;;;5078135;28;20040;-50
2023/08/22 07:45:59;;;;;;;11.70;6.80;;;19.90;99.90;;;;;;5079267;28;20036;-51
2023/08/22 07:48:25;;;;;;;10.32;7.32;;;19.90;99.90;;;;;;5077237;28;20048;-49
2023/08/22 07:50:51;;;;;;;9.30;6.88;;;19.80;99.90;;;;;;5054642;28;20041;-49
2023/08/22 07:53:16;;;;;;;9.77;6.72;;;19.80;99.90;;;;;;5083122;28;20051;-51
2023/08/22 07:55:47;;;;;;;9.25;6.68;;;19.90;99.90;;;;;;5046981;28;20047;-52
2023/08/22 07:58:13;;;;;;;7.68;6.32;;;20.00;99.90;;;;;;5062139;28;20046;-55
2023/08/22 08:00:39;;;;;;;12.15;6.47;;;20.20;99.90;;;;;;5063913;28;20048;-51
2023/08/22 08:03:04;;;;;;;9.57;6.40;;;20.30;99.90;;;;;;5045625;28;20105;-50
2023/08/22 08:05:30;;;;;;;11.20;6.75;;;20.40;99.90;;;;;;5055785;28;20465;-54
2023/08/22 08:07:56;;;;;;;10.13;5.63;;;20.60;99.90;;;;;;5077313;28;20039;-55
2023/08/22 08:10:22;;;;;;;17.27;6.28;;;20.70;99.90;;;;;;5040346;28;20336;-55
2023/08/22 08:12:47;;;;;;;9.98;5.95;;;20.90;99.90;;;;;;5026987;28;20048;-52
2023/08/22 08:15:13;;;;;;;9.25;5.38;;;21.00;99.90;;;;;;5059518;28;20426;-53
2023/08/22 08:17:39;;;;;;;14.00;6.07;;;21.10;99.90;;;;;;5060693;28;20052;-53
2023/08/22 08:20:05;;;;;;;7.75;4.68;;;21.20;99.90;;;;;;5071447;28;20051;-52
2023/08/22 08:22:31;;;;;;;10.23;5.32;;;21.20;99.90;;;;;;5063932;28;20123;-51
2023/08/22 08:24:57;;;;;;;10.10;5.00;;;21.20;99.90;;;;;;5045325;28;20042;-51
2023/08/22 08:27:22;;;;;;;8.90;4.72;;;21.30;99.90;;;;;;5056729;28;20032;-53
2023/08/22 08:29:48;;;;;;;7.45;5.13;;;21.30;99.90;;;;;;5063170;28;20135;-51
2023/08/22 08:32:14;;;;;;;9.25;4.55;;;21.30;99.90;;;;;;5082054;28;20036;-50
2023/08/22 08:34:40;;;;;;;9.57;4.25;;;21.20;99.90;;;;;;5045233;28;20040;-52
2023/08/22 08:37:05;;;;;;;10.60;4.95;;;21.30;99.90;;;;;;5082992;28;20540;-52
2023/08/22 08:39:31;;;;;;;8.85;4.85;;;21.40;99.90;;;;;;5058516;28;20036;-50
2023/08/22 08:41:57;;;;;;;10.18;4.95;;;21.60;99.90;;;;;;5047368;28;20127;-52
2023/08/22 08:44:24;;;;;;;8.43;5.10;;;21.80;99.90;;;;;;5061282;28;20040;-52
2023/08/22 08:46:50;;;;;;;12.52;4.65;;;21.90;99.90;;;;;;5058372;28;20035;-53
2023/08/22 08:49:17;;;;;;;7.30;5.03;;;22.00;99.90;;;;;;5047057;28;20490;-52
2023/08/22 08:51:44;;;;;;;6.80;4.68;;;21.80;99.90;;;;;;5069749;28;20063;-54
2023/08/22 08:54:11;;;;;;;10.75;5.13;;;21.80;99.90;;;;;;5067788;28;20047;-52
2023/08/22 08:56:36;;;;;;;10.38;5.55;;;21.80;99.90;;;;;;5065628;28;20044;-52
2023/08/22 08:59:02;;;;;;;10.30;5.90;;;21.70;99.90;;;;;;5059343;28;20965;-54
2023/08/22 09:01:30;;;;;;;9.68;5.60;;;21.70;99.90;;;;;;5061698;28;20444;-57
2023/08/22 09:03:55;;;;;;;8.20;5.50;;;21.70;99.90;;;;;;5045846;28;20620;-52
2023/08/22 09:06:21;;;;;;;7.70;5.10;;;21.80;99.90;;;;;;5062250;28;20028;-55
2023/08/22 09:09:08;;;;;;;8.52;5.30;;;21.90;99.90;;;;;;5007649;28;20200;-56
2023/08/22 09:11:35;;;;;;;11.63;5.78;;;21.90;99.90;;;;;;5034468;28;20044;-53
2023/08/22 09:14:01;;;;;;;10.40;6.43;;;22.00;99.90;;;;;;5058393;28;20084;-56
2023/08/22 09:16:27;;;;;;;14.00;6.72;;;22.10;99.90;;;;;;5070324;28;20581;-55
2023/08/22 09:19:02;;;;;;;10.57;5.72;;;22.30;99.90;;;;;;5073666;28;20062;-53
2023/08/22 09:21:29;;;;;;;9.02;5.85;;;22.50;99.90;;;;;;5084692;28;20048;-56
2023/08/22 09:24:10;;;;;;;12.40;6.57;;;22.70;99.90;;;;;;5067449;28;20518;-54
2023/08/22 09:26:37;;;;;;;8.75;6.22;;;22.90;99.90;;;;;;5061914;28;20051;-57
2023/08/22 09:29:05;;;;;;;10.25;5.70;;;23.10;99.90;;;;;;5047255;28;20044;-57
2023/08/22 09:31:32;;;;;;;8.07;5.80;;;23.20;99.90;;;;;;5068360;28;20056;-54
2023/08/22 09:33:58;;;;;;;9.57;6.22;;;23.30;99.90;;;;;;5064732;28;20121;-55
2023/08/22 09:36:24;;;;;;;8.77;5.43;;;23.30;99.90;;;;;;5061740;28;20052;-55
2023/08/22 09:38:51;;;;;;;8.98;6.05;;;23.10;99.90;;;;;;5049294;28;20036;-54
2023/08/22 09:41:27;;;;;;;9.32;5.93;;;23.00;99.90;;;;;;5049856;28;20040;-52
2023/08/22 09:44:02;;;;;;;8.32;4.53;;;23.00;99.90;;;;;;5055299;28;20043;-57
2023/08/22 09:46:30;;;;;;;8.50;5.47;;;23.10;99.90;;;;;;5084470;28;20024;-55
2023/08/22 09:48:57;;;;;;;9.00;5.63;;;23.10;99.90;;;;;;5083527;28;20051;-52
2023/08/22 09:51:23;;;;;;;8.02;5.30;;;23.40;99.90;;;;;;5060079;28;20032;-58
2023/08/22 09:53:59;;;;;;;8.48;5.32;;;23.40;99.90;;;;;;5067639;28;20040;-54
2023/08/22 09:56:25;;;;;;;10.55;5.05;;;23.40;99.90;;;;;;5066489;28;20040;-56
2023/08/22 09:58:52;;;;;;;13.88;5.90;;;23.40;99.90;;;;;;5040807;28;20308;-55
2023/08/22 10:01:20;;;;;;;10.70;5.93;;;23.20;99.90;;;;;;5067047;28;20072;-54
2023/08/22 10:03:49;;;;;;;12.18;5.60;;;23.20;99.90;;;;;;5061550;28;20706;-54
2023/08/22 10:06:15;;;;;;;11.90;6.10;;;23.20;99.90;;;;;;5042008;28;20082;-52
2023/08/22 10:08:45;;;;;;;9.88;5.82;;;23.40;99.90;;;;;;5045890;28;20048;-54
2023/08/22 10:11:13;;;;;;;10.30;5.53;;;23.60;99.90;;;;;;5071369;28;20052;-56
2023/08/22 10:13:40;;;;;;;11.13;5.30;;;23.90;99.90;;;;;;5059173;28;20098;-56
2023/08/22 10:16:06;;;;;;;11.90;6.47;;;24.10;99.90;;;;;;5054462;28;20498;-57
2023/08/22 10:18:32;;;;;;;12.95;5.47;;;24.20;99.90;;;;;;5053588;28;20188;-57
2023/08/22 10:20:58;;;;;;;9.43;5.38;;;24.20;99.90;;;;;;5053640;28;20040;-56
2023/08/22 10:23:51;;;;;;;9.60;5.55;;;24.50;99.90;;;;;;5068912;28;20542;-59
2023/08/22 10:26:19;;;;;;;8.68;4.63;;;24.70;99.90;;;;;;5051609;28;21546;-55
2023/08/22 10:29:04;;;;;;;11.60;4.88;;;24.90;99.90;;;;;;5053995;28;20047;-55
2023/08/22 10:31:30;;;;;;;8.13;5.25;;;25.00;99.90;;;;;;5061550;28;20052;-56
2023/08/22 10:34:03;;;;;;;10.52;4.78;;;25.10;99.90;;;;;;5039156;28;20505;-53
2023/08/22 10:36:29;;;;;;;7.88;3.95;;;25.20;99.90;;;;;;5044949;28;20101;-57
2023/08/22 10:39:00;;;;;;;5.95;3.30;;;25.30;99.90;;;;;;5056830;28;20228;-56
2023/08/22 10:41:45;;;;;;;8.25;3.30;;;25.30;99.90;;;;;;5078793;28;20514;-52
2023/08/22 10:44:19;;;;;;;6.78;4.07;;;25.30;99.90;;;;;;5082573;28;20444;-54
2023/08/22 10:47:03;;;;;;;6.70;4.07;;;25.30;99.90;;;;;;5081779;28;20300;-49
2023/08/22 10:49:33;;;;;;;7.50;4.45;;;25.40;99.90;;;;;;5038051;28;20052;-54
2023/08/22 10:52:04;;;;;;;6.55;3.30;;;25.50;99.90;;;;;;5066591;28;20174;-52
2023/08/22 10:54:53;;;;;;;6.63;3.72;;;25.40;99.90;;;;;;5058278;28;20048;-51
2023/08/22 10:57:22;;;;;;;11.27;4.45;;;25.50;99.90;;;;;;5062869;28;20097;-52
2023/08/22 10:59:54;;;;;;;8.85;3.88;;;25.50;99.90;;;;;;5043942;28;20317;-58
2023/08/22 11:02:21;;;;;;;6.10;4.13;;;25.10;99.90;;;;;;5066135;28;20036;-55
2023/08/22 11:04:47;;;;;;;8.80;4.68;;;25.10;99.90;;;;;;5069598;28;20424;-57
2023/08/22 11:07:14;;;;;;;7.00;4.28;;;25.10;99.90;;;;;;5049309;28;20042;-56
2023/08/22 11:09:40;;;;;;;7.07;4.72;;;25.40;99.90;;;;;;5054928;28;20388;-55
2023/08/22 11:12:27;;;;;;;7.80;4.45;;;25.60;99.90;;;;;;5120273;22;20450;-57
2023/08/22 11:14:54;;;;;;;7.07;3.30;;;25.70;99.90;;;;;;5097518;27;20035;-54
2023/08/22 11:17:22;;;;;;;7.22;3.55;;;25.80;99.90;;;;;;5098025;28;20043;-56
2023/08/22 11:19:49;;;;;;;7.60;3.20;;;25.70;99.00;;;;;;5098847;28;20236;-58
2023/08/22 11:22:15;;;;;;;5.47;3.80;;;25.30;99.90;;;;;;5099101;28;20035;-57
2023/08/22 11:24:46;;;;;;;9.02;4.80;;;25.10;99.80;;;;;;5094636;27;20050;-57
2023/08/22 11:27:15;;;;;;;7.45;4.28;;;25.00;99.90;;;;;;5079398;28;20047;-55
2023/08/22 11:29:47;;;;;;;8.80;5.43;;;25.00;99.90;;;;;;5076933;28;20063;-56
2023/08/22 11:32:31;;;;;;;8.35;5.47;;;24.80;99.90;;;;;;5116746;27;20039;-56
2023/08/22 11:35:06;;;;;;;;;;;24.80;99.90;;;;;;5094572;27;20084;-57
2023/08/22 11:37:39;;;;;;;9.85;6.20;;;24.80;99.90;;;;;;5116234;27;20725;-56
2023/08/22 11:40:09;;;;;;;7.72;5.45;;;24.40;99.90;;;;;;5088096;27;20423;-57
2023/08/22 11:42:37;;;;;;;11.98;6.22;;;24.50;99.90;;;;;;5097194;27;20035;-54
2023/08/22 11:45:14;;;;;;;8.93;5.80;;;24.60;99.90;;;;;;5098179;28;20039;-55
2023/08/22 11:47:41;;;;;;;11.32;6.13;;;24.50;99.90;;;;;;5100329;28;20070;-57
2023/08/22 11:50:17;;;;;;;11.00;5.43;;;24.80;99.90;;;;;;5125764;27;20493;-55
2023/08/22 11:52:45;;;;;;;14.07;7.20;;;25.20;99.90;;;;;;5096718;28;20040;-55
2023/08/22 11:55:16;;;;;;;9.73;5.78;;;25.20;99.90;;;;;;5103359;28;20043;-57
2023/08/22 11:57:43;;;;;;;9.48;5.70;;;25.10;99.90;;;;;;5100265;27;20050;-56
2023/08/22 12:00:12;;;;;;;9.32;5.97;;;25.00;99.90;;;;;;5098724;28;21727;-57
2023/08/22 12:02:52;;;;;;;8.05;5.30;;;24.60;99.90;;;;;;5084333;27;20263;-57
2023/08/22 12:05:37;;;;;;;12.88;5.38;;;24.50;99.90;;;;;;5099604;27;20113;-57
2023/08/22 12:08:05;;;;;;;8.93;5.00;;;24.50;99.90;;;;;;5118694;27;20494;-57
2023/08/22 12:10:49;;;;;;;8.15;4.75;;;24.40;99.90;;;;;;5086604;27;20413;-56
2023/08/22 12:13:16;;;;;;;13.23;5.40;;;24.50;99.90;;;;;;5078211;27;20047;-57
2023/08/22 12:15:43;;;;;;;10.77;5.20;;;24.60;99.90;;;;;;5083494;27;20092;-57
2023/08/22 12:18:09;;;;;;;10.95;5.35;;;24.80;99.90;;;;;;5078488;27;20039;-57
2023/08/22 12:20:38;;;;;;;8.48;4.85;;;25.30;99.90;;;;;;5113930;27;20045;-57
2023/08/22 12:23:04;;;;;;;10.63;5.18;;;25.30;99.90;;;;;;5099268;27;20074;-57
2023/08/22 12:25:30;;;;;;;9.45;4.57;;;25.10;99.90;;;;;;5101453;27;20054;-57
2023/08/22 12:27:56;;;;;;;7.88;4.35;;;25.10;99.90;;;;;;5112169;27;20039;-58
2023/08/22 12:30:22;;;;;;;9.73;4.72;;;25.50;99.90;;;;;;5102048;27;20045;-57
2023/08/22 12:32:47;;;;;;;7.18;4.05;;;25.90;99.90;;;;;;5082122;27;21266;-57
2023/08/22 12:35:13;;;;;;;8.95;4.68;;;26.10;99.70;;;;;;5097310;27;20053;-56
2023/08/22 12:37:40;;;;;;;7.97;4.38;;;25.70;99.70;;;;;;5101192;27;20040;-58
2023/08/22 12:40:10;;;;;;;7.65;3.80;;;25.70;99.30;;;;;;5101172;27;20035;-57
2023/08/22 12:42:39;;;;;;;9.07;3.90;;;25.70;99.00;;;;;;5112018;27;20038;-57
2023/08/22 12:45:09;;;;;;;10.65;3.90;;;25.70;99.00;;;;;;5097207;27;20036;-57